Weather History for Bowie, TX

Change the Weather History Date:

Monday, October 1, 2012

  Actual Average (KSPS) Record (KSPS)
Temperature  
Mean Temperature 68 °F 70 °F  
Max Temperature 78 °F 82 °F 102 °F (1938)
Min Temperature 59 °F 57 °F 40 °F (1985)
Degree Days  
Heating Degree Days 0 1  
Month to date heating degree days 1  
Since 1 July heating degree days 14  
Cooling Degree Days 4 6  
Month to date cooling degree days 6  
Year to date cooling degree days 2285  
Growing Degree Days 18 (Base 50)    
Moisture  
Dew Point 53 °F    
Average Humidity 66    
Maximum Humidity 100    
Minimum Humidity 28    
Precipitation  
Precipitation 0.00 in 0.09 in 1.26 in (1941)
Month to date precipitation 0.09  
Year to date precipitation 22.63  
Sea Level Pressure  
Sea Level Pressure 29.89 in    
Wind  
Wind Speed 7 mph (WNW)    
Max Wind Speed 14 mph    
Max Gust Speed 22 mph    
Visibility 7 miles    
Events Fog    
T = Trace of Precipitation, MM = Missing Value Source: NWS Daily Summary

Daily Weather History Graph

Daily Weather History Graph

Search for Another Location

Airport:

Trip Planner

Search our weather history database for the weather conditions in past years. The results will help you decide how hot, cold, wet, or windy it might be!

Date:

Astronomy

Oct. 01, 2012 Rise Set
Actual Time 7:25 AM CDT 7:14 PM CDT
Civil Twilight 7:00 AM CDT 7:39 PM CDT
Nautical Twilight 6:32 AM CDT 8:08 PM CDT
Astronomical Twilight 6:03 AM CDT 8:37 PM CDT
Moon 8:00 PM CDT (10/1) 8:49 AM CDT (10/1)
Length of Visible Light 12h 38m
Length of Day
11h 48m
Full, 98% of the Moon is Illuminated
Oct 1
Full
Oct 8
Last Quarter
Oct 15
New
Oct 21
First Quarter
Oct 29
Full

Hourly Weather History & Observations

Time (CDT) Temp. Dew Point Humidity Pressure Visibility Wind Dir Wind Speed Gust Speed Precip Events Conditions
12:15 AM 59.0 °F 59.0 °F 100% 29.89 in 1.5 mi West 3.5 mph - N/A   Mist
12:35 AM 59.0 °F 59.0 °F 100% 29.88 in 2.5 mi West 3.5 mph - N/A   Clear
12:55 AM 59.0 °F 59.0 °F 100% 29.87 in 1.8 mi WNW 3.5 mph - N/A   Mist
1:15 AM 59.0 °F 59.0 °F 100% 29.87 in 1.5 mi West 4.6 mph - N/A   Mist
1:35 AM 59.0 °F 59.0 °F 100% 29.87 in 1.5 mi West 4.6 mph - N/A   Mist
1:55 AM 59.0 °F 59.0 °F 100% 29.88 in 1.8 mi Calm Calm - N/A   Mist
2:35 AM 59.0 °F 59.0 °F 100% 29.88 in 2.5 mi West 3.5 mph - N/A   Clear
3:35 AM 59.0 °F 59.0 °F 100% 29.87 in 4.0 mi West 4.6 mph - N/A   Clear
3:55 AM 59.0 °F 59.0 °F 100% 29.87 in 3.0 mi West 3.5 mph - N/A   Clear
4:15 AM 59.0 °F 59.0 °F 100% 29.87 in 3.0 mi West 4.6 mph - N/A   Clear
4:35 AM 59.0 °F 59.0 °F 100% 29.87 in 3.0 mi West 5.8 mph - N/A   Clear
4:55 AM 59.0 °F 59.0 °F 100% 29.87 in 0.2 mi West 6.9 mph - N/A Fog Fog
5:15 AM 59.0 °F 59.0 °F 100% 29.88 in 0.2 mi West 8.1 mph - N/A Fog Fog
5:35 AM 60.8 °F 60.8 °F 100% 29.88 in 0.2 mi West 8.1 mph - N/A Fog Fog
6:15 AM 59.0 °F 59.0 °F 100% 29.88 in 0.2 mi WNW 8.1 mph - N/A Fog Fog
6:35 AM 59.0 °F 59.0 °F 100% 29.89 in 1.2 mi WNW 8.1 mph - N/A   Mostly Cloudy
7:15 AM 59.0 °F 59.0 °F 100% 29.88 in 1.8 mi NW 8.1 mph - N/A   Mist
7:35 AM 59.0 °F 57.2 °F 94% 29.89 in 1.8 mi NW 8.1 mph - N/A   Mist
7:55 AM 59.0 °F 59.0 °F 100% 29.89 in 2.5 mi NNW 6.9 mph - N/A   Clear
8:15 AM 59.0 °F 59.0 °F 100% 29.90 in 3.0 mi NW 5.8 mph - N/A   Clear
8:35 AM 60.8 °F 60.8 °F 100% 29.90 in 4.0 mi WNW 8.1 mph - N/A   Clear
8:55 AM 60.8 °F 60.8 °F 100% 29.90 in 5.0 mi WNW 8.1 mph - N/A   Clear
9:15 AM 62.6 °F 60.8 °F 94% 29.91 in 7.0 mi WNW 9.2 mph - N/A   Clear
9:35 AM 64.4 °F 60.8 °F 88% 29.91 in 7.0 mi NW 8.1 mph - N/A   Clear
10:15 AM 66.2 °F 60.8 °F 83% 29.92 in 10.0 mi WNW 11.5 mph - N/A   Clear
10:35 AM 68.0 °F 57.2 °F 68% 29.93 in 10.0 mi WNW 10.4 mph - N/A   Clear
10:55 AM 68.0 °F 55.4 °F 64% 29.93 in 10.0 mi WNW 9.2 mph - N/A   Clear
11:15 AM 69.8 °F 53.6 °F 56% 29.92 in 10.0 mi WNW 10.4 mph - N/A   Clear
11:35 AM 71.6 °F 53.6 °F 53% 29.92 in 10.0 mi WNW 12.7 mph - N/A   Clear
11:55 AM 71.6 °F 51.8 °F 50% 29.92 in 10.0 mi NW 11.5 mph 18.4 mph N/A   Clear
12:15 PM 73.4 °F 51.8 °F 47% 29.91 in 10.0 mi WNW 12.7 mph - N/A   Clear
12:35 PM 73.4 °F 50.0 °F 44% 29.91 in 10.0 mi NNW 11.5 mph - N/A   Clear
12:55 PM 75.2 °F 50.0 °F 41% 29.91 in 10.0 mi WNW 13.8 mph 18.4 mph N/A   Clear
1:15 PM 75.2 °F 46.4 °F 36% 29.90 in 10.0 mi NW 11.5 mph 16.1 mph N/A   Clear
1:35 PM 77.0 °F 46.4 °F 34% 29.90 in 10.0 mi NW 11.5 mph 17.3 mph N/A   Clear
1:55 PM 77.0 °F 46.4 °F 34% 29.89 in 10.0 mi NW 12.7 mph 16.1 mph N/A   Clear
2:15 PM 77.0 °F 46.4 °F 34% 29.88 in 10.0 mi NW 12.7 mph 20.7 mph N/A   Clear
2:55 PM 78.8 °F 46.4 °F 32% 29.87 in 10.0 mi NW 11.5 mph 18.4 mph N/A   Clear
3:15 PM 78.8 °F 46.4 °F 32% 29.86 in 10.0 mi NW 10.4 mph 21.9 mph N/A   Clear
3:35 PM 78.8 °F 44.6 °F 30% 29.86 in 10.0 mi NNW 13.8 mph 20.7 mph N/A   Clear
3:55 PM 78.8 °F 42.8 °F 28% 29.85 in 10.0 mi NNW 10.4 mph 18.4 mph N/A   Clear
4:15 PM 78.8 °F 44.6 °F 30% 29.85 in 10.0 mi NW 11.5 mph 18.4 mph N/A   Clear
4:35 PM 78.8 °F 42.8 °F 28% 29.85 in 10.0 mi NW 11.5 mph - N/A   Clear
4:55 PM 78.8 °F 44.6 °F 30% 29.85 in 10.0 mi NNW 11.5 mph 16.1 mph N/A   Clear
5:15 PM 78.8 °F 42.8 °F 28% 29.85 in 10.0 mi NNW 11.5 mph 19.6 mph N/A   Clear
5:35 PM 77.0 °F 42.8 °F 29% 29.85 in 10.0 mi NNW 11.5 mph - N/A   Clear
5:55 PM 77.0 °F 44.6 °F 32% 29.86 in 10.0 mi NW 11.5 mph - N/A   Clear
6:15 PM 77.0 °F 46.4 °F 34% 29.86 in 10.0 mi NW 9.2 mph - N/A   Clear
6:35 PM 73.4 °F 46.4 °F 38% 29.86 in 10.0 mi WNW 6.9 mph - N/A   Clear
6:55 PM 71.6 °F 50.0 °F 46% 29.87 in 10.0 mi WNW 6.9 mph - N/A   Clear
7:15 PM 69.8 °F 50.0 °F 49% 29.87 in 10.0 mi NW 5.8 mph - N/A   Scattered Clouds
7:35 PM 68.0 °F 51.8 °F 56% 29.88 in 10.0 mi WNW 5.8 mph - N/A   Clear
7:55 PM 68.0 °F 51.8 °F 56% 29.88 in 10.0 mi WNW 6.9 mph - N/A   Clear
8:15 PM 68.0 °F 50.0 °F 52% 29.89 in 10.0 mi WNW 8.1 mph - N/A   Clear
8:35 PM 68.0 °F 50.0 °F 52% 29.90 in 10.0 mi WNW 8.1 mph - N/A   Scattered Clouds
8:55 PM 68.0 °F 50.0 °F 52% 29.90 in 10.0 mi WNW 10.4 mph - N/A   Scattered Clouds
9:15 PM 68.0 °F 50.0 °F 52% 29.91 in 10.0 mi NW 10.4 mph - N/A   Mostly Cloudy
9:35 PM 66.2 °F 51.8 °F 60% 29.92 in 10.0 mi NW 8.1 mph - N/A   Scattered Clouds
9:55 PM 68.0 °F 50.0 °F 52% 29.92 in 10.0 mi NNW 9.2 mph - N/A   Clear
10:15 PM 66.2 °F 50.0 °F 56% 29.93 in 10.0 mi NW 8.1 mph - N/A   Scattered Clouds
10:35 PM 64.4 °F 51.8 °F 64% 29.94 in 10.0 mi NW 8.1 mph - N/A   Clear
10:55 PM 64.4 °F 51.8 °F 64% 29.94 in 10.0 mi NW 6.9 mph - N/A   Clear
11:15 PM 62.6 °F 51.8 °F 68% 29.94 in 10.0 mi NW 8.1 mph - N/A   Clear
11:35 PM 62.6 °F 51.8 °F 68% 29.94 in 10.0 mi WNW 6.9 mph - N/A   Clear
11:55 PM 60.8 °F 51.8 °F 72% 29.94 in 10.0 mi WNW 8.1 mph - N/A   Clear